sensor_id;sensor_type;location;lat;lon;timestamp;temperature;humidity
78289;DHT22;67539;48.752;12.922;2023-03-01T00:01:20;1.50;73.70
78289;DHT22;67539;48.752;12.922;2023-03-01T00:03:49;1.40;73.70
78289;DHT22;67539;48.752;12.922;2023-03-01T00:06:18;1.40;74.10
78289;DHT22;67539;48.752;12.922;2023-03-01T00:08:47;1.30;74.10
78289;DHT22;67539;48.752;12.922;2023-03-01T00:11:16;1.30;73.70
78289;DHT22;67539;48.752;12.922;2023-03-01T00:13:47;1.30;73.70
78289;DHT22;67539;48.752;12.922;2023-03-01T00:16:17;1.20;74.00
78289;DHT22;67539;48.752;12.922;2023-03-01T00:18:46;1.20;74.40
78289;DHT22;67539;48.752;12.922;2023-03-01T00:21:14;1.10;74.80
78289;DHT22;67539;48.752;12.922;2023-03-01T00:23:42;1.10;75.00
78289;DHT22;67539;48.752;12.922;2023-03-01T00:26:13;1.00;75.10
78289;DHT22;67539;48.752;12.922;2023-03-01T00:28:42;1.00;75.40
78289;DHT22;67539;48.752;12.922;2023-03-01T00:31:13;0.90;75.50
78289;DHT22;67539;48.752;12.922;2023-03-01T00:33:42;0.90;75.60
78289;DHT22;67539;48.752;12.922;2023-03-01T00:36:12;0.80;75.90
78289;DHT22;67539;48.752;12.922;2023-03-01T00:38:42;0.80;76.00
78289;DHT22;67539;48.752;12.922;2023-03-01T00:41:13;0.80;76.10
78289;DHT22;67539;48.752;12.922;2023-03-01T00:43:42;0.80;76.30
78289;DHT22;67539;48.752;12.922;2023-03-01T00:46:13;0.70;76.00
78289;DHT22;67539;48.752;12.922;2023-03-01T00:48:42;0.80;75.80
78289;DHT22;67539;48.752;12.922;2023-03-01T00:51:12;0.70;76.10
78289;DHT22;67539;48.752;12.922;2023-03-01T00:53:40;0.70;76.30
78289;DHT22;67539;48.752;12.922;2023-03-01T00:56:10;0.70;76.50
78289;DHT22;67539;48.752;12.922;2023-03-01T00:58:39;0.60;76.70
78289;DHT22;67539;48.752;12.922;2023-03-01T01:01:08;0.60;76.90
78289;DHT22;67539;48.752;12.922;2023-03-01T01:03:46;0.60;76.80
78289;DHT22;67539;48.752;12.922;2023-03-01T01:06:16;0.60;77.00
78289;DHT22;67539;48.752;12.922;2023-03-01T01:08:45;0.50;77.10
78289;DHT22;67539;48.752;12.922;2023-03-01T01:11:13;0.50;77.10
78289;DHT22;67539;48.752;12.922;2023-03-01T01:13:44;0.40;77.70
78289;DHT22;67539;48.752;12.922;2023-03-01T01:16:13;0.40;78.00
78289;DHT22;67539;48.752;12.922;2023-03-01T01:18:42;0.30;78.20
78289;DHT22;67539;48.752;12.922;2023-03-01T01:21:13;0.30;78.30
78289;DHT22;67539;48.752;12.922;2023-03-01T01:23:43;0.30;78.50
78289;DHT22;67539;48.752;12.922;2023-03-01T01:26:14;0.20;78.60
78289;DHT22;67539;48.752;12.922;2023-03-01T01:28:42;0.20;78.80
78289;DHT22;67539;48.752;12.922;2023-03-01T01:31:11;0.20;78.80
78289;DHT22;67539;48.752;12.922;2023-03-01T01:33:39;0.10;78.80
78289;DHT22;67539;48.752;12.922;2023-03-01T01:36:08;0.10;78.90
78289;DHT22;67539;48.752;12.922;2023-03-01T01:38:38;0.10;78.90
78289;DHT22;67539;48.752;12.922;2023-03-01T01:41:10;0.10;78.60
78289;DHT22;67539;48.752;12.922;2023-03-01T01:43:40;0.10;78.90
78289;DHT22;67539;48.752;12.922;2023-03-01T01:46:25;0.10;79.00
78289;DHT22;67539;48.752;12.922;2023-03-01T01:49:02;0.00;79.10
78289;DHT22;67539;48.752;12.922;2023-03-01T01:51:37;0.00;79.30
78289;DHT22;67539;48.752;12.922;2023-03-01T01:54:11;-0.10;79.60
78289;DHT22;67539;48.752;12.922;2023-03-01T01:56:44;-0.10;80.10
78289;DHT22;67539;48.752;12.922;2023-03-01T01:59:16;-0.10;80.30
78289;DHT22;67539;48.752;12.922;2023-03-01T02:01:44;-0.20;80.50
78289;DHT22;67539;48.752;12.922;2023-03-01T02:04:13;-0.20;80.60
78289;DHT22;67539;48.752;12.922;2023-03-01T02:06:46;-0.20;80.80
78289;DHT22;67539;48.752;12.922;2023-03-01T02:09:20;-0.30;81.20
78289;DHT22;67539;48.752;12.922;2023-03-01T02:11:51;-0.30;81.20
78289;DHT22;67539;48.752;12.922;2023-03-01T02:14:19;-0.30;81.40
78289;DHT22;67539;48.752;12.922;2023-03-01T02:16:48;-0.30;81.70
78289;DHT22;67539;48.752;12.922;2023-03-01T02:19:27;-0.30;81.70
78289;DHT22;67539;48.752;12.922;2023-03-01T02:22:03;-0.30;81.60
78289;DHT22;67539;48.752;12.922;2023-03-01T02:24:40;-0.30;82.00
78289;DHT22;67539;48.752;12.922;2023-03-01T02:27:16;-0.40;82.00
78289;DHT22;67539;48.752;12.922;2023-03-01T02:29:50;-0.40;81.90
78289;DHT22;67539;48.752;12.922;2023-03-01T02:32:20;-0.40;82.10
78289;DHT22;67539;48.752;12.922;2023-03-01T02:34:53;-0.40;82.00
78289;DHT22;67539;48.752;12.922;2023-03-01T02:37:22;-0.40;81.90
78289;DHT22;67539;48.752;12.922;2023-03-01T02:39:56;-0.40;82.30
78289;DHT22;67539;48.752;12.922;2023-03-01T02:42:31;-0.40;82.40
78289;DHT22;67539;48.752;12.922;2023-03-01T02:45:03;-0.40;82.60
78289;DHT22;67539;48.752;12.922;2023-03-01T02:47:32;-0.40;82.50
78289;DHT22;67539;48.752;12.922;2023-03-01T02:50:00;-0.40;82.70
78289;DHT22;67539;48.752;12.922;2023-03-01T02:52:36;-0.50;82.80
78289;DHT22;67539;48.752;12.922;2023-03-01T02:55:10;-0.50;82.80
78289;DHT22;67539;48.752;12.922;2023-03-01T02:57:41;-0.50;83.00
78289;DHT22;67539;48.752;12.922;2023-03-01T03:00:14;-0.50;83.30
78289;DHT22;67539;48.752;12.922;2023-03-01T03:02:47;-0.60;83.50
78289;DHT22;67539;48.752;12.922;2023-03-01T03:05:24;-0.60;83.80
78289;DHT22;67539;48.752;12.922;2023-03-01T03:07:56;-0.60;83.80
78289;DHT22;67539;48.752;12.922;2023-03-01T03:10:27;-0.60;84.10
78289;DHT22;67539;48.752;12.922;2023-03-01T03:12:57;-0.70;84.10
78289;DHT22;67539;48.752;12.922;2023-03-01T03:15:28;-0.70;84.30
78289;DHT22;67539;48.752;12.922;2023-03-01T03:17:58;-0.70;84.70
78289;DHT22;67539;48.752;12.922;2023-03-01T03:20:28;-0.70;84.90
78289;DHT22;67539;48.752;12.922;2023-03-01T03:22:57;-0.70;85.00
78289;DHT22;67539;48.752;12.922;2023-03-01T03:25:28;-0.80;85.40
78289;DHT22;67539;48.752;12.922;2023-03-01T03:27:57;-0.80;85.60
78289;DHT22;67539;48.752;12.922;2023-03-01T03:30:29;-0.80;85.50
78289;DHT22;67539;48.752;12.922;2023-03-01T03:32:58;-0.80;85.70
78289;DHT22;67539;48.752;12.922;2023-03-01T03:35:28;-0.90;85.70
78289;DHT22;67539;48.752;12.922;2023-03-01T03:37:59;-0.90;85.90
78289;DHT22;67539;48.752;12.922;2023-03-01T03:40:32;-0.90;86.00
78289;DHT22;67539;48.752;12.922;2023-03-01T03:43:02;-0.90;86.30
78289;DHT22;67539;48.752;12.922;2023-03-01T03:45:31;-1.00;86.70
78289;DHT22;67539;48.752;12.922;2023-03-01T03:48:03;-1.00;86.90
78289;DHT22;67539;48.752;12.922;2023-03-01T03:50:32;-1.10;87.20
78289;DHT22;67539;48.752;12.922;2023-03-01T03:53:02;-1.10;87.70
78289;DHT22;67539;48.752;12.922;2023-03-01T03:55:31;-1.10;88.00
78289;DHT22;67539;48.752;12.922;2023-03-01T03:58:02;-1.10;88.30
78289;DHT22;67539;48.752;12.922;2023-03-01T04:00:37;-1.20;88.40
78289;DHT22;67539;48.752;12.922;2023-03-01T04:03:06;-1.20;88.60
78289;DHT22;67539;48.752;12.922;2023-03-01T04:05:36;-1.20;88.80
78289;DHT22;67539;48.752;12.922;2023-03-01T04:08:05;-1.20;88.80
78289;DHT22;67539;48.752;12.922;2023-03-01T04:10:35;-1.20;89.20
78289;DHT22;67539;48.752;12.922;2023-03-01T04:13:04;-1.20;89.20
78289;DHT22;67539;48.752;12.922;2023-03-01T04:15:35;-1.20;89.50
78289;DHT22;67539;48.752;12.922;2023-03-01T04:18:04;-1.20;89.40
78289;DHT22;67539;48.752;12.922;2023-03-01T04:20:35;-1.30;89.70
78289;DHT22;67539;48.752;12.922;2023-03-01T04:23:05;-1.30;89.70
78289;DHT22;67539;48.752;12.922;2023-03-01T04:25:41;-1.30;89.70
78289;DHT22;67539;48.752;12.922;2023-03-01T04:28:10;-1.30;89.90
78289;DHT22;67539;48.752;12.922;2023-03-01T04:30:40;-1.40;89.90
78289;DHT22;67539;48.752;12.922;2023-03-01T04:33:10;-1.30;89.80
78289;DHT22;67539;48.752;12.922;2023-03-01T04:35:38;-1.40;90.00
78289;DHT22;67539;48.752;12.922;2023-03-01T04:38:08;-1.40;90.10
78289;DHT22;67539;48.752;12.922;2023-03-01T04:40:37;-1.40;90.00
78289;DHT22;67539;48.752;12.922;2023-03-01T04:43:05;-1.40;90.20
78289;DHT22;67539;48.752;12.922;2023-03-01T04:45:33;-1.40;90.30
78289;DHT22;67539;48.752;12.922;2023-03-01T04:48:04;-1.40;89.90
78289;DHT22;67539;48.752;12.922;2023-03-01T04:50:33;-1.50;89.70
78289;DHT22;67539;48.752;12.922;2023-03-01T04:53:01;-1.50;90.10
78289;DHT22;67539;48.752;12.922;2023-03-01T04:55:30;-1.50;90.10
78289;DHT22;67539;48.752;12.922;2023-03-01T04:57:59;-1.50;90.30
78289;DHT22;67539;48.752;12.922;2023-03-01T05:00:27;-1.50;90.30
78289;DHT22;67539;48.752;12.922;2023-03-01T05:02:57;-1.50;90.40
78289;DHT22;67539;48.752;12.922;2023-03-01T05:05:31;-1.50;90.50
78289;DHT22;67539;48.752;12.922;2023-03-01T05:08:01;-1.50;90.50
78289;DHT22;67539;48.752;12.922;2023-03-01T05:10:31;-1.50;90.60
78289;DHT22;67539;48.752;12.922;2023-03-01T05:13:03;-1.60;90.50
78289;DHT22;67539;48.752;12.922;2023-03-01T05:15:32;-1.60;90.70
78289;DHT22;67539;48.752;12.922;2023-03-01T05:18:00;-1.60;90.80
78289;DHT22;67539;48.752;12.922;2023-03-01T05:20:30;-1.60;90.90
78289;DHT22;67539;48.752;12.922;2023-03-01T05:22:59;-1.60;91.00
78289;DHT22;67539;48.752;12.922;2023-03-01T05:25:33;-1.60;91.10
78289;DHT22;67539;48.752;12.922;2023-03-01T05:28:11;-1.60;91.10
78289;DHT22;67539;48.752;12.922;2023-03-01T05:30:39;-1.60;91.30
78289;DHT22;67539;48.752;12.922;2023-03-01T05:33:08;-1.60;91.30
78289;DHT22;67539;48.752;12.922;2023-03-01T05:35:43;-1.70;91.40
78289;DHT22;67539;48.752;12.922;2023-03-01T05:38:12;-1.70;91.40
78289;DHT22;67539;48.752;12.922;2023-03-01T05:40:41;-1.70;91.40
78289;DHT22;67539;48.752;12.922;2023-03-01T05:43:11;-1.70;91.50
78289;DHT22;67539;48.752;12.922;2023-03-01T05:45:40;-1.80;91.60
78289;DHT22;67539;48.752;12.922;2023-03-01T05:48:09;-1.80;91.80
78289;DHT22;67539;48.752;12.922;2023-03-01T05:50:39;-1.80;91.90
78289;DHT22;67539;48.752;12.922;2023-03-01T05:53:12;-1.90;92.00
78289;DHT22;67539;48.752;12.922;2023-03-01T05:55:41;-1.90;92.20
78289;DHT22;67539;48.752;12.922;2023-03-01T05:58:11;-2.00;92.40
78289;DHT22;67539;48.752;12.922;2023-03-01T06:00:42;-2.00;92.70
78289;DHT22;67539;48.752;12.922;2023-03-01T06:03:11;-2.00;92.70
78289;DHT22;67539;48.752;12.922;2023-03-01T06:05:40;-2.10;92.60
78289;DHT22;67539;48.752;12.922;2023-03-01T06:08:11;-2.10;92.80
78289;DHT22;67539;48.752;12.922;2023-03-01T06:10:40;-2.10;93.00
78289;DHT22;67539;48.752;12.922;2023-03-01T06:13:08;-2.10;93.00
78289;DHT22;67539;48.752;12.922;2023-03-01T06:15:37;-2.10;93.10
78289;DHT22;67539;48.752;12.922;2023-03-01T06:18:05;-2.10;93.20
78289;DHT22;67539;48.752;12.922;2023-03-01T06:20:33;-2.00;93.30
78289;DHT22;67539;48.752;12.922;2023-03-01T06:23:02;-2.00;93.30
78289;DHT22;67539;48.752;12.922;2023-03-01T06:25:32;-2.00;93.40
78289;DHT22;67539;48.752;12.922;2023-03-01T06:28:00;-1.90;93.30
78289;DHT22;67539;48.752;12.922;2023-03-01T06:30:29;-1.90;93.30
78289;DHT22;67539;48.752;12.922;2023-03-01T06:32:57;-1.90;93.40
78289;DHT22;67539;48.752;12.922;2023-03-01T06:35:28;-1.90;93.40
78289;DHT22;67539;48.752;12.922;2023-03-01T06:37:59;-1.80;93.30
78289;DHT22;67539;48.752;12.922;2023-03-01T06:40:28;-1.80;93.40
78289;DHT22;67539;48.752;12.922;2023-03-01T06:42:59;-1.80;93.20
78289;DHT22;67539;48.752;12.922;2023-03-01T06:45:27;-1.70;93.10
78289;DHT22;67539;48.752;12.922;2023-03-01T06:48:02;-1.70;93.10
78289;DHT22;67539;48.752;12.922;2023-03-01T06:50:31;-1.60;93.20
78289;DHT22;67539;48.752;12.922;2023-03-01T06:53:00;-1.50;93.10
78289;DHT22;67539;48.752;12.922;2023-03-01T06:55:29;-1.50;93.00
78289;DHT22;67539;48.752;12.922;2023-03-01T06:57:59;-1.40;92.70
78289;DHT22;67539;48.752;12.922;2023-03-01T07:00:28;-1.30;92.50
78289;DHT22;67539;48.752;12.922;2023-03-01T07:02:59;-1.30;92.50
78289;DHT22;67539;48.752;12.922;2023-03-01T07:05:29;-1.20;93.00
78289;DHT22;67539;48.752;12.922;2023-03-01T07:07:57;-1.20;92.80
78289;DHT22;67539;48.752;12.922;2023-03-01T07:10:26;-1.20;92.80
78289;DHT22;67539;48.752;12.922;2023-03-01T07:12:55;-1.10;93.00
78289;DHT22;67539;48.752;12.922;2023-03-01T07:15:26;-1.00;92.90
78289;DHT22;67539;48.752;12.922;2023-03-01T07:17:56;-0.90;92.90
78289;DHT22;67539;48.752;12.922;2023-03-01T07:20:25;-0.90;92.90
78289;DHT22;67539;48.752;12.922;2023-03-01T07:22:53;-0.80;92.90
78289;DHT22;67539;48.752;12.922;2023-03-01T07:25:22;-0.70;93.00
78289;DHT22;67539;48.752;12.922;2023-03-01T07:27:50;-0.70;93.10
78289;DHT22;67539;48.752;12.922;2023-03-01T07:30:19;-0.60;93.20
78289;DHT22;67539;48.752;12.922;2023-03-01T07:32:49;-0.50;93.20
78289;DHT22;67539;48.752;12.922;2023-03-01T07:35:20;-0.40;93.00
78289;DHT22;67539;48.752;12.922;2023-03-01T07:37:49;-0.40;92.80
78289;DHT22;67539;48.752;12.922;2023-03-01T07:40:17;-0.30;92.50
78289;DHT22;67539;48.752;12.922;2023-03-01T07:42:45;-0.20;92.30
78289;DHT22;67539;48.752;12.922;2023-03-01T07:45:14;-0.10;92.20
78289;DHT22;67539;48.752;12.922;2023-03-01T07:47:42;-0.10;92.00
78289;DHT22;67539;48.752;12.922;2023-03-01T07:50:12;0.00;91.70
78289;DHT22;67539;48.752;12.922;2023-03-01T07:52:41;0.10;91.40
78289;DHT22;67539;48.752;12.922;2023-03-01T07:55:10;0.30;91.20
78289;DHT22;67539;48.752;12.922;2023-03-01T07:57:38;0.30;90.60
78289;DHT22;67539;48.752;12.922;2023-03-01T08:00:09;0.40;90.30
78289;DHT22;67539;48.752;12.922;2023-03-01T08:02:38;0.50;89.40
78289;DHT22;67539;48.752;12.922;2023-03-01T08:05:08;0.60;89.70
78289;DHT22;67539;48.752;12.922;2023-03-01T08:07:38;0.70;89.50
78289;DHT22;67539;48.752;12.922;2023-03-01T08:10:08;0.80;89.10
78289;DHT22;67539;48.752;12.922;2023-03-01T08:12:36;0.90;88.30
78289;DHT22;67539;48.752;12.922;2023-03-01T08:15:06;1.00;88.30
78289;DHT22;67539;48.752;12.922;2023-03-01T08:17:34;1.10;87.60
78289;DHT22;67539;48.752;12.922;2023-03-01T08:20:03;1.20;87.10
78289;DHT22;67539;48.752;12.922;2023-03-01T08:22:33;1.30;86.70
78289;DHT22;67539;48.752;12.922;2023-03-01T08:25:03;1.40;86.70
78289;DHT22;67539;48.752;12.922;2023-03-01T08:27:32;1.50;85.80
78289;DHT22;67539;48.752;12.922;2023-03-01T08:30:00;1.60;85.60
78289;DHT22;67539;48.752;12.922;2023-03-01T08:32:28;1.70;84.40
78289;DHT22;67539;48.752;12.922;2023-03-01T08:34:56;1.80;84.00
78289;DHT22;67539;48.752;12.922;2023-03-01T08:37:25;1.90;83.90
78289;DHT22;67539;48.752;12.922;2023-03-01T08:39:54;2.00;82.80
78289;DHT22;67539;48.752;12.922;2023-03-01T08:42:24;2.10;82.00
78289;DHT22;67539;48.752;12.922;2023-03-01T08:44:52;2.30;82.20
78289;DHT22;67539;48.752;12.922;2023-03-01T08:47:20;2.40;80.20
78289;DHT22;67539;48.752;12.922;2023-03-01T08:49:49;2.50;77.90
78289;DHT22;67539;48.752;12.922;2023-03-01T08:52:18;2.70;77.60
78289;DHT22;67539;48.752;12.922;2023-03-01T08:54:47;2.80;77.00
78289;DHT22;67539;48.752;12.922;2023-03-01T08:57:15;2.90;76.50
78289;DHT22;67539;48.752;12.922;2023-03-01T08:59:45;3.10;74.90
78289;DHT22;67539;48.752;12.922;2023-03-01T09:02:14;3.20;71.70
78289;DHT22;67539;48.752;12.922;2023-03-01T09:04:43;3.30;73.60
78289;DHT22;67539;48.752;12.922;2023-03-01T09:07:11;3.40;73.70
78289;DHT22;67539;48.752;12.922;2023-03-01T09:09:39;3.40;73.00
78289;DHT22;67539;48.752;12.922;2023-03-01T09:12:07;3.50;72.90
78289;DHT22;67539;48.752;12.922;2023-03-01T09:14:36;3.60;71.60
78289;DHT22;67539;48.752;12.922;2023-03-01T09:17:06;3.70;70.80
78289;DHT22;67539;48.752;12.922;2023-03-01T09:19:35;3.80;71.00
78289;DHT22;67539;48.752;12.922;2023-03-01T09:22:03;3.90;72.20
78289;DHT22;67539;48.752;12.922;2023-03-01T09:24:31;4.00;71.60
78289;DHT22;67539;48.752;12.922;2023-03-01T09:26:59;4.20;69.90
78289;DHT22;67539;48.752;12.922;2023-03-01T09:29:28;4.30;70.90
78289;DHT22;67539;48.752;12.922;2023-03-01T09:31:56;4.40;71.30
78289;DHT22;67539;48.752;12.922;2023-03-01T09:34:25;4.60;70.00
78289;DHT22;67539;48.752;12.922;2023-03-01T09:36:53;4.80;68.20
78289;DHT22;67539;48.752;12.922;2023-03-01T09:39:21;5.00;67.20
78289;DHT22;67539;48.752;12.922;2023-03-01T09:41:55;5.10;66.60
78289;DHT22;67539;48.752;12.922;2023-03-01T09:44:31;5.00;66.00
78289;DHT22;67539;48.752;12.922;2023-03-01T09:47:01;5.10;65.70
78289;DHT22;67539;48.752;12.922;2023-03-01T09:49:33;5.20;64.90
78289;DHT22;67539;48.752;12.922;2023-03-01T09:52:12;5.30;65.90
78289;DHT22;67539;48.752;12.922;2023-03-01T09:54:46;5.40;65.10
78289;DHT22;67539;48.752;12.922;2023-03-01T09:57:19;5.40;64.40
78289;DHT22;67539;48.752;12.922;2023-03-01T10:00:01;5.40;66.40
78289;DHT22;67539;48.752;12.922;2023-03-01T10:02:38;5.50;65.90
78289;DHT22;67539;48.752;12.922;2023-03-01T10:05:19;5.50;64.00
78289;DHT22;67539;48.752;12.922;2023-03-01T10:08:02;5.50;65.20
78289;DHT22;67539;48.752;12.922;2023-03-01T10:10:36;5.60;65.80
78289;DHT22;67539;48.752;12.922;2023-03-01T10:13:25;5.60;65.20
78289;DHT22;67539;48.752;12.922;2023-03-01T10:15:56;5.70;65.00
78289;DHT22;67539;48.752;12.922;2023-03-01T10:18:26;5.70;63.70
78289;DHT22;67539;48.752;12.922;2023-03-01T10:20:59;5.70;64.30
78289;DHT22;67539;48.752;12.922;2023-03-01T10:23:31;5.80;63.10
78289;DHT22;67539;48.752;12.922;2023-03-01T10:26:11;5.80;62.90
78289;DHT22;67539;48.752;12.922;2023-03-01T10:28:50;5.80;62.90
78289;DHT22;67539;48.752;12.922;2023-03-01T10:31:23;5.90;63.00
78289;DHT22;67539;48.752;12.922;2023-03-01T10:33:56;5.90;64.20
78289;DHT22;67539;48.752;12.922;2023-03-01T10:36:27;6.00;65.10
78289;DHT22;67539;48.752;12.922;2023-03-01T10:38:57;6.10;64.40
78289;DHT22;67539;48.752;12.922;2023-03-01T10:41:26;6.10;64.70
78289;DHT22;67539;48.752;12.922;2023-03-01T10:43:57;6.20;64.70
78289;DHT22;67539;48.752;12.922;2023-03-01T10:46:29;6.30;64.40
78289;DHT22;67539;48.752;12.922;2023-03-01T10:49:13;6.40;64.90
78289;DHT22;67539;48.752;12.922;2023-03-01T10:51:45;6.50;62.20
78289;DHT22;67539;48.752;12.922;2023-03-01T10:54:20;6.50;61.30
78289;DHT22;67539;48.752;12.922;2023-03-01T10:56:50;6.50;61.20
78289;DHT22;67539;48.752;12.922;2023-03-01T10:59:25;6.60;62.50
78289;DHT22;67539;48.752;12.922;2023-03-01T11:02:15;6.60;63.00
78289;DHT22;67539;48.752;12.922;2023-03-01T11:04:58;6.70;63.30
78289;DHT22;67539;48.752;12.922;2023-03-01T11:07:29;6.80;63.40
78289;DHT22;67539;48.752;12.922;2023-03-01T11:09:57;6.90;62.70
78289;DHT22;67539;48.752;12.922;2023-03-01T11:12:25;7.00;63.50
78289;DHT22;67539;48.752;12.922;2023-03-01T11:14:57;7.00;62.00
78289;DHT22;67539;48.752;12.922;2023-03-01T11:17:28;7.10;62.40
78289;DHT22;67539;48.752;12.922;2023-03-01T11:20:16;7.20;62.80
78289;DHT22;67539;48.752;12.922;2023-03-01T11:22:48;7.40;63.70
78289;DHT22;67539;48.752;12.922;2023-03-01T11:25:20;7.60;63.90
78289;DHT22;67539;48.752;12.922;2023-03-01T11:27:52;7.60;64.00
78289;DHT22;67539;48.752;12.922;2023-03-01T11:30:24;7.80;63.60
78289;DHT22;67539;48.752;12.922;2023-03-01T11:33:03;7.80;63.10
78289;DHT22;67539;48.752;12.922;2023-03-01T11:35:35;7.90;64.10
78289;DHT22;67539;48.752;12.922;2023-03-01T11:38:15;8.00;62.10
78289;DHT22;67539;48.752;12.922;2023-03-01T11:40:46;8.00;62.50
78289;DHT22;67539;48.752;12.922;2023-03-01T11:43:21;8.10;61.20
78289;DHT22;67539;48.752;12.922;2023-03-01T11:46:24;8.20;62.40
78289;DHT22;67539;48.752;12.922;2023-03-01T11:49:03;8.20;61.70
78289;DHT22;67539;48.752;12.922;2023-03-01T11:51:41;8.30;62.70
78289;DHT22;67539;48.752;12.922;2023-03-01T11:54:19;8.40;62.50
78289;DHT22;67539;48.752;12.922;2023-03-01T11:56:52;8.50;63.30
78289;DHT22;67539;48.752;12.922;2023-03-01T11:59:53;8.70;63.30
78289;DHT22;67539;48.752;12.922;2023-03-01T12:02:46;8.80;61.90
78289;DHT22;67539;48.752;12.922;2023-03-01T12:05:38;8.90;62.70
78289;DHT22;67539;48.752;12.922;2023-03-01T12:08:16;9.00;62.80
78289;DHT22;67539;48.752;12.922;2023-03-01T12:10:56;9.20;63.20
78289;DHT22;67539;48.752;12.922;2023-03-01T12:13:55;9.30;61.40
78289;DHT22;67539;48.752;12.922;2023-03-01T12:16:34;9.40;62.00
78289;DHT22;67539;48.752;12.922;2023-03-01T12:19:32;9.50;61.30
78289;DHT22;67539;48.752;12.922;2023-03-01T12:22:11;9.60;62.90
78289;DHT22;67539;48.752;12.922;2023-03-01T12:24:58;9.70;62.00
78289;DHT22;67539;48.752;12.922;2023-03-01T12:27:51;9.80;61.10
78289;DHT22;67539;48.752;12.922;2023-03-01T12:30:30;10.00;59.90
78289;DHT22;67539;48.752;12.922;2023-03-01T12:33:12;10.10;61.30
78289;DHT22;67539;48.752;12.922;2023-03-01T12:35:54;10.30;61.80
78289;DHT22;67539;48.752;12.922;2023-03-01T12:38:33;10.50;60.30
78289;DHT22;67539;48.752;12.922;2023-03-01T12:41:16;10.60;60.50
78289;DHT22;67539;48.752;12.922;2023-03-01T12:43:59;10.70;59.80
78289;DHT22;67539;48.752;12.922;2023-03-01T12:46:38;10.80;60.10
78289;DHT22;67539;48.752;12.922;2023-03-01T12:49:13;10.80;60.00
78289;DHT22;67539;48.752;12.922;2023-03-01T12:51:51;10.90;59.60
78289;DHT22;67539;48.752;12.922;2023-03-01T12:54:29;10.80;57.40
78289;DHT22;67539;48.752;12.922;2023-03-01T12:57:03;10.60;57.20
78289;DHT22;67539;48.752;12.922;2023-03-01T12:59:39;10.40;57.90
78289;DHT22;67539;48.752;12.922;2023-03-01T13:02:15;10.30;57.10
78289;DHT22;67539;48.752;12.922;2023-03-01T13:05:02;10.20;57.70
78289;DHT22;67539;48.752;12.922;2023-03-01T13:07:36;10.10;56.90
78289;DHT22;67539;48.752;12.922;2023-03-01T13:10:17;10.00;58.10
78289;DHT22;67539;48.752;12.922;2023-03-01T13:12:52;10.00;58.30
78289;DHT22;67539;48.752;12.922;2023-03-01T13:15:31;10.00;59.50
78289;DHT22;67539;48.752;12.922;2023-03-01T13:18:02;10.00;58.50
78289;DHT22;67539;48.752;12.922;2023-03-01T13:20:34;10.10;58.70
78289;DHT22;67539;48.752;12.922;2023-03-01T13:23:07;10.20;58.30
78289;DHT22;67539;48.752;12.922;2023-03-01T13:26:03;10.30;57.60
78289;DHT22;67539;48.752;12.922;2023-03-01T13:28:50;10.30;57.00
78289;DHT22;67539;48.752;12.922;2023-03-01T13:31:56;10.50;59.20
78289;DHT22;67539;48.752;12.922;2023-03-01T13:34:48;10.80;58.60
78289;DHT22;67539;48.752;12.922;2023-03-01T13:37:21;10.90;58.40
78289;DHT22;67539;48.752;12.922;2023-03-01T13:39:52;10.90;57.80
78289;DHT22;67539;48.752;12.922;2023-03-01T13:42:36;11.00;59.50
78289;DHT22;67539;48.752;12.922;2023-03-01T13:45:19;11.20;59.00
78289;DHT22;67539;48.752;12.922;2023-03-01T13:47:54;11.40;59.60
78289;DHT22;67539;48.752;12.922;2023-03-01T13:50:27;11.70;58.40
78289;DHT22;67539;48.752;12.922;2023-03-01T13:52:57;11.80;57.70
78289;DHT22;67539;48.752;12.922;2023-03-01T13:55:34;12.10;55.40
78289;DHT22;67539;48.752;12.922;2023-03-01T13:58:13;12.20;56.30
78289;DHT22;67539;48.752;12.922;2023-03-01T14:00:43;12.40;56.50
78289;DHT22;67539;48.752;12.922;2023-03-01T14:03:14;12.70;56.50
78289;DHT22;67539;48.752;12.922;2023-03-01T14:05:52;13.00;54.60
78289;DHT22;67539;48.752;12.922;2023-03-01T14:08:40;13.30;56.20
78289;DHT22;67539;48.752;12.922;2023-03-01T14:11:52;13.60;54.40
78289;DHT22;67539;48.752;12.922;2023-03-01T14:14:41;13.90;54.60
78289;DHT22;67539;48.752;12.922;2023-03-01T14:17:50;14.10;53.30
78289;DHT22;67539;48.752;12.922;2023-03-01T14:20:22;14.30;53.30
78289;DHT22;67539;48.752;12.922;2023-03-01T14:22:54;14.60;52.90
78289;DHT22;67539;48.752;12.922;2023-03-01T14:25:26;14.80;52.20
78289;DHT22;67539;48.752;12.922;2023-03-01T14:28:00;14.90;51.60
78289;DHT22;67539;48.752;12.922;2023-03-01T14:30:35;14.90;50.30
78289;DHT22;67539;48.752;12.922;2023-03-01T14:33:06;14.90;49.60
78289;DHT22;67539;48.752;12.922;2023-03-01T14:35:55;14.90;49.50
78289;DHT22;67539;48.752;12.922;2023-03-01T14:38:30;14.90;48.80
78289;DHT22;67539;48.752;12.922;2023-03-01T14:41:01;14.90;49.00
78289;DHT22;67539;48.752;12.922;2023-03-01T14:43:32;15.00;48.70
78289;DHT22;67539;48.752;12.922;2023-03-01T14:46:01;15.00;48.40
78289;DHT22;67539;48.752;12.922;2023-03-01T14:48:30;14.90;49.50
78289;DHT22;67539;48.752;12.922;2023-03-01T14:51:00;15.00;49.20
78289;DHT22;67539;48.752;12.922;2023-03-01T14:53:29;15.00;48.20
78289;DHT22;67539;48.752;12.922;2023-03-01T14:56:16;14.90;48.50
78289;DHT22;67539;48.752;12.922;2023-03-01T14:58:44;14.80;48.50
78289;DHT22;67539;48.752;12.922;2023-03-01T15:01:16;14.80;48.70
78289;DHT22;67539;48.752;12.922;2023-03-01T15:03:47;14.80;48.50
78289;DHT22;67539;48.752;12.922;2023-03-01T15:06:19;14.70;47.70
78289;DHT22;67539;48.752;12.922;2023-03-01T15:08:49;14.60;48.30
78289;DHT22;67539;48.752;12.922;2023-03-01T15:11:20;14.60;48.40
78289;DHT22;67539;48.752;12.922;2023-03-01T15:13:51;14.50;47.40
78289;DHT22;67539;48.752;12.922;2023-03-01T15:16:22;14.40;48.20
78289;DHT22;67539;48.752;12.922;2023-03-01T15:18:53;14.20;48.70
78289;DHT22;67539;48.752;12.922;2023-03-01T15:21:24;14.10;47.40
78289;DHT22;67539;48.752;12.922;2023-03-01T15:23:59;14.00;47.20
78289;DHT22;67539;48.752;12.922;2023-03-01T15:26:30;13.80;48.40
78289;DHT22;67539;48.752;12.922;2023-03-01T15:29:00;13.60;47.40
78289;DHT22;67539;48.752;12.922;2023-03-01T15:31:30;13.40;48.30
78289;DHT22;67539;48.752;12.922;2023-03-01T15:34:22;13.30;48.80
78289;DHT22;67539;48.752;12.922;2023-03-01T15:36:53;13.30;49.10
78289;DHT22;67539;48.752;12.922;2023-03-01T15:39:34;13.30;49.10
78289;DHT22;67539;48.752;12.922;2023-03-01T15:42:06;13.10;49.10
78289;DHT22;67539;48.752;12.922;2023-03-01T15:44:36;13.10;49.70
78289;DHT22;67539;48.752;12.922;2023-03-01T15:47:27;13.10;49.60
78289;DHT22;67539;48.752;12.922;2023-03-01T15:49:57;13.00;49.60
78289;DHT22;67539;48.752;12.922;2023-03-01T15:52:28;13.00;49.20
78289;DHT22;67539;48.752;12.922;2023-03-01T15:54:59;12.90;50.10
78289;DHT22;67539;48.752;12.922;2023-03-01T15:57:28;12.80;50.40